Time;durP1;ratioP1;P1;durP2;ratioP2;P2;SDS_P1;SDS_P2;PMS_P1;PMS_P2;Temp;Humidity;BMP_temperature;BMP_pressure;BME280_temperature;BME280_humidity;BME280_pressure;Samples;Min_cycle;Max_cycle;Signal;HPM_P1;HPM_P2
2023/03/16 00:00:26;;;;;;;4.32;3.92;;;;;;;;;;5072880;28;20403;-79
2023/03/16 00:02:52;;;;;;;5.25;4.75;;;;;;;;;;5073012;28;20452;-79
2023/03/16 00:05:18;;;;;;;4.30;3.90;;;;;;;;;;5072678;28;20857;-79
2023/03/16 00:07:44;;;;;;;4.07;2.92;;;;;;;;;;5072874;28;20372;-79
2023/03/16 00:10:11;;;;;;;3.40;3.05;;;;;;;;;;5072451;28;20445;-79
2023/03/16 00:12:37;;;;;;;3.55;2.90;;;;;;;;;;5072795;28;20376;-79
2023/03/16 00:15:03;;;;;;;3.20;2.90;;;;;;;;;;5075317;28;20385;-78
2023/03/16 00:17:30;;;;;;;2.78;2.40;;;;;;;;;;5072537;28;20418;-79
2023/03/16 00:19:56;;;;;;;3.00;2.23;;;;;;;;;;5072775;28;20462;-78
2023/03/16 00:22:24;;;;;;;3.60;2.40;;;;;;;;;;5072351;28;21022;-79
2023/03/16 00:24:51;;;;;;;2.58;2.10;;;;;;;;;;5058747;28;20423;-78
2023/03/16 00:27:17;;;;;;;2.85;2.25;;;;;;;;;;5072494;28;20379;-78
2023/03/16 00:29:47;;;;;;;3.10;2.20;;;;;;;;;;5072436;28;20376;-78
2023/03/16 00:32:20;;;;;;;3.25;2.00;;;;;;;;;;5072481;28;20483;-79
2023/03/16 00:34:46;;;;;;;2.50;2.10;;;;;;;;;;5072218;28;20439;-78
2023/03/16 00:37:14;;;;;;;2.45;2.00;;;;;;;;;;5071519;28;20391;-78
2023/03/16 00:39:44;;;;;;;2.95;2.05;;;;;;;;;;5056919;28;20495;-79
2023/03/16 00:42:11;;;;;;;3.08;2.60;;;;;;;;;;5054510;28;20574;-79
2023/03/16 00:44:37;;;;;;;2.25;1.98;;;;;;;;;;5057488;28;20384;-79
2023/03/16 00:47:04;;;;;;;2.47;2.00;;;;;;;;;;5055274;28;20456;-79
2023/03/16 00:49:33;;;;;;;3.13;2.30;;;;;;;;;;5053512;28;20905;-79
2023/03/16 00:51:59;;;;;;;2.55;1.90;;;;;;;;;;5057821;28;20784;-80
2023/03/16 00:54:25;;;;;;;2.20;1.80;;;;;;;;;;5059913;28;20381;-78
2023/03/16 00:56:51;;;;;;;2.63;2.20;;;;;;;;;;5072319;28;20478;-79
2023/03/16 00:59:20;;;;;;;3.08;2.25;;;;;;;;;;5067416;28;20412;-78
2023/03/16 01:01:46;;;;;;;2.28;2.00;;;;;;;;;;5052791;28;20735;-80
2023/03/16 01:04:12;;;;;;;2.72;2.20;;;;;;;;;;5053943;28;20441;-80
2023/03/16 01:06:40;;;;;;;2.47;1.85;;;;;;;;;;5051625;28;20465;-80
2023/03/16 01:09:07;;;;;;;3.22;1.88;;;;;;;;;;5061129;28;20383;-79
2023/03/16 01:11:33;;;;;;;3.80;2.00;;;;;;;;;;5062339;28;20742;-79
2023/03/16 01:14:00;;;;;;;2.28;1.70;;;;;;;;;;5051181;28;20373;-79
2023/03/16 01:16:26;;;;;;;2.23;2.00;;;;;;;;;;5069704;28;20923;-80
2023/03/16 01:18:52;;;;;;;2.97;1.90;;;;;;;;;;5070603;28;20443;-78
2023/03/16 01:21:20;;;;;;;2.13;1.80;;;;;;;;;;5071643;28;20474;-78
2023/03/16 01:23:46;;;;;;;2.35;1.98;;;;;;;;;;5072216;28;20459;-79
2023/03/16 01:26:16;;;;;;;2.28;1.80;;;;;;;;;;5072756;28;20798;-81
2023/03/16 01:28:43;;;;;;;2.75;1.95;;;;;;;;;;5073601;28;20376;-80
2023/03/16 01:31:10;;;;;;;2.50;1.98;;;;;;;;;;5072293;28;20385;-79
2023/03/16 01:33:36;;;;;;;2.25;1.73;;;;;;;;;;5072419;28;20858;-80
2023/03/16 01:36:06;;;;;;;2.40;1.70;;;;;;;;;;5070706;28;20384;-79
2023/03/16 01:38:32;;;;;;;2.03;1.70;;;;;;;;;;5071456;28;20451;-79
2023/03/16 01:40:59;;;;;;;2.40;1.80;;;;;;;;;;5071696;28;20388;-79
2023/03/16 01:43:26;;;;;;;2.50;2.00;;;;;;;;;;5071537;28;20394;-79
2023/03/16 01:46:01;;;;;;;2.80;2.00;;;;;;;;;;5071284;28;20419;-79
2023/03/16 01:48:27;;;;;;;2.53;1.67;;;;;;;;;;5071191;28;20451;-80
2023/03/16 01:50:55;;;;;;;3.15;2.00;;;;;;;;;;5071338;28;20395;-79
2023/03/16 01:53:23;;;;;;;2.30;1.73;;;;;;;;;;5071139;28;20375;-80
2023/03/16 01:55:49;;;;;;;2.30;1.90;;;;;;;;;;5071117;28;20897;-80
2023/03/16 01:58:15;;;;;;;3.13;1.90;;;;;;;;;;5071263;28;20564;-79
2023/03/16 02:00:44;;;;;;;3.45;2.10;;;;;;;;;;5071124;28;20384;-80
2023/03/16 02:03:12;;;;;;;2.80;2.20;;;;;;;;;;5071295;28;20913;-79
2023/03/16 02:05:41;;;;;;;3.30;2.30;;;;;;;;;;5070891;28;20494;-80
2023/03/16 02:08:09;;;;;;;3.00;2.53;;;;;;;;;;5072001;28;20427;-80
2023/03/16 02:10:36;;;;;;;2.80;2.30;;;;;;;;;;5075111;28;20395;-80
2023/03/16 02:13:02;;;;;;;2.60;2.40;;;;;;;;;;5075315;28;20908;-79
2023/03/16 02:15:28;;;;;;;3.50;2.20;;;;;;;;;;5074165;28;20384;-80
2023/03/16 02:17:56;;;;;;;2.53;2.33;;;;;;;;;;5077298;28;20414;-79
2023/03/16 02:20:22;;;;;;;3.35;2.38;;;;;;;;;;5074523;28;20388;-79
2023/03/16 02:22:52;;;;;;;3.40;2.33;;;;;;;;;;5075011;28;20368;-80
2023/03/16 02:25:20;;;;;;;3.50;2.10;;;;;;;;;;5074799;28;20435;-80
2023/03/16 02:28:06;;;;;;;2.47;1.90;;;;;;;;;;5074402;28;20380;-79
2023/03/16 02:30:32;;;;;;;2.83;2.10;;;;;;;;;;5063595;28;20457;-80
2023/03/16 02:32:58;;;;;;;2.47;2.00;;;;;;;;;;5074773;28;20387;-80
2023/03/16 02:35:24;;;;;;;2.87;2.20;;;;;;;;;;5074759;28;20788;-80
2023/03/16 02:37:51;;;;;;;2.63;2.28;;;;;;;;;;5074586;28;20414;-80
2023/03/16 02:40:37;;;;;;;2.83;1.83;;;;;;;;;;5073390;28;20967;-80
2023/03/16 02:43:07;;;;;;;2.42;2.10;;;;;;;;;;5065806;28;20449;-80
2023/03/16 02:45:39;;;;;;;2.83;2.42;;;;;;;;;;5063359;28;20434;-80
2023/03/16 02:48:09;;;;;;;2.30;2.10;;;;;;;;;;5057019;28;20401;-79
2023/03/16 02:50:35;;;;;;;2.20;1.98;;;;;;;;;;5063280;28;20700;-80
2023/03/16 02:53:01;;;;;;;2.40;2.10;;;;;;;;;;5073681;28;20479;-80
2023/03/16 02:55:27;;;;;;;2.28;1.90;;;;;;;;;;5074235;28;20466;-79
2023/03/16 02:57:53;;;;;;;2.10;1.80;;;;;;;;;;5074311;28;20411;-80
2023/03/16 03:00:20;;;;;;;2.22;2.03;;;;;;;;;;5073154;28;20415;-80
2023/03/16 03:02:46;;;;;;;3.22;2.10;;;;;;;;;;5083032;28;20387;-80
2023/03/16 03:05:12;;;;;;;2.65;2.20;;;;;;;;;;5074029;28;20433;-79
2023/03/16 03:07:39;;;;;;;2.20;1.77;;;;;;;;;;5074066;28;20412;-80
2023/03/16 03:10:05;;;;;;;2.47;2.00;;;;;;;;;;5074115;28;20959;-80
2023/03/16 03:12:32;;;;;;;2.22;1.90;;;;;;;;;;5074003;28;20412;-80
2023/03/16 03:14:58;;;;;;;3.42;2.08;;;;;;;;;;5074012;28;20379;-80
2023/03/16 03:17:28;;;;;;;3.00;2.10;;;;;;;;;;5076541;28;20375;-80
2023/03/16 03:19:55;;;;;;;3.47;2.15;;;;;;;;;;5072550;28;20489;-80
2023/03/16 03:22:21;;;;;;;2.00;1.80;;;;;;;;;;5073953;28;20372;-80
2023/03/16 03:24:47;;;;;;;2.50;1.73;;;;;;;;;;5073831;28;20378;-80
2023/03/16 03:27:13;;;;;;;2.28;2.08;;;;;;;;;;5073786;28;20736;-79
2023/03/16 03:29:39;;;;;;;2.08;1.80;;;;;;;;;;5073708;28;20388;-80
2023/03/16 03:32:06;;;;;;;2.15;1.95;;;;;;;;;;5073496;28;20384;-80
2023/03/16 03:34:32;;;;;;;2.05;1.85;;;;;;;;;;5073533;28;20424;-80
2023/03/16 03:36:58;;;;;;;2.07;1.80;;;;;;;;;;5073556;28;20461;-80
2023/03/16 03:39:25;;;;;;;2.20;1.80;;;;;;;;;;5073660;28;20403;-80
2023/03/16 03:41:54;;;;;;;2.10;1.90;;;;;;;;;;5072782;28;20828;-80
2023/03/16 03:44:20;;;;;;;3.43;2.10;;;;;;;;;;5066226;28;20553;-80
2023/03/16 03:46:47;;;;;;;2.40;2.10;;;;;;;;;;5073284;28;20511;-80
2023/03/16 03:49:13;;;;;;;2.42;2.08;;;;;;;;;;5073448;28;20737;-80
2023/03/16 03:51:40;;;;;;;2.22;1.88;;;;;;;;;;5073206;28;20384;-80
2023/03/16 03:54:06;;;;;;;2.10;1.90;;;;;;;;;;5073304;28;20933;-80
2023/03/16 03:56:32;;;;;;;3.90;1.85;;;;;;;;;;5073066;28;20478;-80
2023/03/16 03:58:58;;;;;;;2.30;1.98;;;;;;;;;;5072974;28;20403;-80
2023/03/16 04:01:24;;;;;;;2.35;2.10;;;;;;;;;;5073285;28;20466;-80
2023/03/16 04:03:50;;;;;;;2.33;2.13;;;;;;;;;;5073035;28;20379;-80
2023/03/16 04:06:16;;;;;;;2.58;2.35;;;;;;;;;;5072871;28;20435;-80
2023/03/16 04:08:42;;;;;;;2.45;2.20;;;;;;;;;;5071722;28;20427;-80
2023/03/16 04:11:08;;;;;;;3.92;2.42;;;;;;;;;;5074861;28;20380;-80
2023/03/16 04:13:34;;;;;;;3.08;2.67;;;;;;;;;;5072491;28;20740;-80
2023/03/16 04:16:04;;;;;;;2.53;2.33;;;;;;;;;;5072777;28;20475;-79
2023/03/16 04:18:37;;;;;;;3.03;2.45;;;;;;;;;;5072804;28;20855;-81
2023/03/16 04:21:07;;;;;;;2.95;2.30;;;;;;;;;;5072730;28;20482;-80
2023/03/16 04:23:33;;;;;;;2.80;2.50;;;;;;;;;;5072609;28;20491;-80
2023/03/16 04:25:59;;;;;;;4.20;2.55;;;;;;;;;;5072517;28;20375;-80
2023/03/16 04:28:25;;;;;;;2.50;2.30;;;;;;;;;;5072575;28;20467;-80
2023/03/16 04:30:55;;;;;;;2.88;2.40;;;;;;;;;;5072118;28;20467;-80
2023/03/16 04:33:21;;;;;;;2.80;2.50;;;;;;;;;;5072516;28;20416;-79
2023/03/16 04:35:47;;;;;;;3.30;2.70;;;;;;;;;;5072449;28;20503;-80
2023/03/16 04:38:13;;;;;;;3.53;2.90;;;;;;;;;;5070945;28;20892;-79
2023/03/16 04:40:39;;;;;;;4.40;2.92;;;;;;;;;;5072382;28;20394;-80
2023/03/16 04:43:05;;;;;;;3.30;3.00;;;;;;;;;;5063485;28;20373;-80
2023/03/16 04:45:31;;;;;;;3.20;2.90;;;;;;;;;;5072289;28;20383;-80
2023/03/16 04:47:57;;;;;;;3.35;3.05;;;;;;;;;;5068361;28;20447;-80
2023/03/16 04:50:24;;;;;;;3.50;3.10;;;;;;;;;;5059550;28;20395;-80
2023/03/16 04:52:50;;;;;;;3.50;3.20;;;;;;;;;;5067783;28;20869;-79
2023/03/16 04:55:16;;;;;;;3.80;3.30;;;;;;;;;;5057172;28;20750;-79
2023/03/16 04:57:42;;;;;;;3.42;3.13;;;;;;;;;;5073293;28;20388;-79
2023/03/16 05:00:10;;;;;;;3.67;3.38;;;;;;;;;;5080772;28;20391;-80
2023/03/16 05:02:36;;;;;;;4.28;3.40;;;;;;;;;;5073595;28;20375;-79
2023/03/16 05:05:03;;;;;;;3.80;3.40;;;;;;;;;;5073154;28;20383;-79
2023/03/16 05:07:30;;;;;;;4.38;3.92;;;;;;;;;;5071828;28;20446;-80
2023/03/16 05:09:56;;;;;;;5.38;3.83;;;;;;;;;;5072002;28;20379;-80
2023/03/16 05:12:22;;;;;;;4.57;4.13;;;;;;;;;;5066603;28;20390;-79
2023/03/16 05:14:48;;;;;;;4.40;4.00;;;;;;;;;;5066129;28;20899;-80
2023/03/16 05:17:14;;;;;;;4.70;4.20;;;;;;;;;;5068315;28;20391;-79
2023/03/16 05:19:41;;;;;;;4.78;4.30;;;;;;;;;;5068451;28;20458;-79
2023/03/16 05:22:07;;;;;;;4.60;4.20;;;;;;;;;;5067478;28;20889;-80
2023/03/16 05:24:33;;;;;;;4.90;4.50;;;;;;;;;;5053390;28;20396;-80
2023/03/16 05:27:02;;;;;;;4.43;4.03;;;;;;;;;;5052233;28;20381;-80
2023/03/16 05:29:30;;;;;;;5.22;3.88;;;;;;;;;;5062317;28;20451;-79
2023/03/16 05:31:56;;;;;;;4.32;4.03;;;;;;;;;;5070824;28;20903;-80
2023/03/16 05:34:22;;;;;;;4.60;4.20;;;;;;;;;;5070228;28;20399;-80
2023/03/16 05:36:48;;;;;;;4.07;3.78;;;;;;;;;;5071054;28;20392;-79
2023/03/16 05:39:14;;;;;;;4.85;4.05;;;;;;;;;;5071248;28;20939;-80
2023/03/16 05:41:40;;;;;;;4.97;4.47;;;;;;;;;;5071344;28;20408;-80
2023/03/16 05:44:06;;;;;;;4.70;4.30;;;;;;;;;;5063559;28;20372;-80
2023/03/16 05:46:32;;;;;;;4.65;4.25;;;;;;;;;;5071201;28;20476;-81
2023/03/16 05:48:58;;;;;;;5.30;4.80;;;;;;;;;;5060199;28;20428;-80
2023/03/16 05:51:27;;;;;;;4.75;4.35;;;;;;;;;;5066159;28;20383;-80
2023/03/16 05:53:57;;;;;;;4.85;4.45;;;;;;;;;;5071141;28;20376;-80
2023/03/16 05:56:27;;;;;;;5.72;5.22;;;;;;;;;;5071113;28;20509;-80
2023/03/16 05:58:54;;;;;;;5.78;5.18;;;;;;;;;;5056490;28;20485;-80
2023/03/16 06:01:21;;;;;;;5.28;4.78;;;;;;;;;;5071224;28;20744;-80
2023/03/16 06:03:47;;;;;;;5.68;5.18;;;;;;;;;;5070672;28;20380;-80
2023/03/16 06:06:14;;;;;;;5.63;5.13;;;;;;;;;;5071883;28;20764;-80
2023/03/16 06:08:41;;;;;;;5.88;5.22;;;;;;;;;;5058827;28;20377;-80
2023/03/16 06:11:07;;;;;;;5.88;5.38;;;;;;;;;;5056194;28;20376;-81
2023/03/16 06:13:33;;;;;;;5.68;5.18;;;;;;;;;;5056026;28;20381;-80
2023/03/16 06:15:59;;;;;;;5.73;5.23;;;;;;;;;;5067753;28;20792;-80
2023/03/16 06:18:25;;;;;;;6.20;5.70;;;;;;;;;;5062304;28;20449;-80
2023/03/16 06:20:51;;;;;;;5.90;5.40;;;;;;;;;;5057854;28;20476;-80
2023/03/16 06:23:19;;;;;;;5.88;5.28;;;;;;;;;;5056945;28;20377;-81
2023/03/16 06:25:46;;;;;;;6.32;5.80;;;;;;;;;;5070098;28;20448;-80
2023/03/16 06:28:12;;;;;;;5.90;5.40;;;;;;;;;;5070256;28;20893;-80
2023/03/16 06:30:38;;;;;;;5.68;5.18;;;;;;;;;;5069929;28;20475;-80
2023/03/16 06:33:04;;;;;;;5.53;5.10;;;;;;;;;;5070185;28;20422;-79
2023/03/16 06:35:31;;;;;;;6.18;5.57;;;;;;;;;;5068828;28;20427;-80
2023/03/16 06:37:57;;;;;;;5.72;5.07;;;;;;;;;;5070148;28;20458;-80
2023/03/16 06:40:23;;;;;;;6.70;6.10;;;;;;;;;;5070643;28;20479;-80
2023/03/16 06:42:49;;;;;;;6.30;5.70;;;;;;;;;;5066558;28;20393;-81
2023/03/16 06:45:16;;;;;;;6.90;6.30;;;;;;;;;;5070053;28;20380;-80
2023/03/16 06:47:42;;;;;;;6.65;6.15;;;;;;;;;;5070116;28;20744;-79
2023/03/16 06:50:09;;;;;;;7.10;6.45;;;;;;;;;;5070264;28;20518;-80
2023/03/16 06:52:35;;;;;;;6.88;6.38;;;;;;;;;;5070335;28;20448;-79
2023/03/16 06:55:01;;;;;;;9.45;8.55;;;;;;;;;;5072678;28;20473;-80
2023/03/16 06:57:27;;;;;;;7.00;6.40;;;;;;;;;;5074891;28;20457;-79
2023/03/16 06:59:52;;;;;;;7.40;6.70;;;;;;;;;;5074166;28;20454;-80
2023/03/16 07:02:19;;;;;;;7.70;7.00;;;;;;;;;;5074056;28;20897;-80
2023/03/16 07:04:45;;;;;;;7.57;6.90;;;;;;;;;;5074093;28;20379;-80
2023/03/16 07:07:11;;;;;;;8.50;7.70;;;;;;;;;;5073665;28;20408;-79
2023/03/16 07:09:37;;;;;;;8.30;7.60;;;;;;;;;;5072456;28;20379;-80
2023/03/16 07:12:03;;;;;;;9.10;8.30;;;;;;;;;;5073489;28;20380;-80
2023/03/16 07:14:30;;;;;;;9.13;8.43;;;;;;;;;;5076493;28;20383;-79
2023/03/16 07:16:56;;;;;;;8.40;7.70;;;;;;;;;;5073790;28;20433;-80
2023/03/16 07:19:22;;;;;;;9.00;8.20;;;;;;;;;;5072436;28;20406;-80
2023/03/16 07:21:48;;;;;;;8.98;8.18;;;;;;;;;;5072592;28;20390;-80
2023/03/16 07:24:14;;;;;;;9.40;8.60;;;;;;;;;;5073553;28;20380;-79
2023/03/16 07:26:42;;;;;;;9.57;8.83;;;;;;;;;;5065916;28;20560;-78
2023/03/16 07:29:08;;;;;;;9.05;8.35;;;;;;;;;;5067159;28;20380;-79
2023/03/16 07:31:35;;;;;;;8.95;8.15;;;;;;;;;;5072293;28;20446;-79
2023/03/16 07:34:01;;;;;;;9.23;8.43;;;;;;;;;;5073582;28;20379;-79
2023/03/16 07:36:27;;;;;;;9.40;8.50;;;;;;;;;;5058050;28;20498;-78
2023/03/16 07:38:54;;;;;;;10.13;9.13;;;;;;;;;;5071185;28;20495;-79
2023/03/16 07:41:20;;;;;;;9.68;8.68;;;;;;;;;;5060925;28;20393;-79
2023/03/16 07:43:46;;;;;;;9.70;8.82;;;;;;;;;;5069947;28;20376;-79
2023/03/16 07:46:12;;;;;;;9.50;8.70;;;;;;;;;;5073136;28;20375;-79
2023/03/16 07:48:42;;;;;;;9.13;8.43;;;;;;;;;;5072231;28;20896;-79
2023/03/16 07:51:09;;;;;;;9.65;8.85;;;;;;;;;;5073208;28;20912;-79
2023/03/16 07:53:35;;;;;;;8.82;8.02;;;;;;;;;;5073215;28;20872;-79
2023/03/16 07:56:01;;;;;;;9.15;8.30;;;;;;;;;;5066831;28;20394;-79
2023/03/16 07:58:27;;;;;;;8.25;7.57;;;;;;;;;;5058708;28;20409;-79
2023/03/16 08:01:00;;;;;;;8.88;8.18;;;;;;;;;;5071280;28;20399;-77
2023/03/16 08:03:26;;;;;;;8.13;7.40;;;;;;;;;;5064519;28;20465;-79
2023/03/16 08:05:53;;;;;;;8.60;7.90;;;;;;;;;;5071991;28;20419;-78
2023/03/16 08:08:21;;;;;;;7.30;6.70;;;;;;;;;;5072875;28;20403;-78
2023/03/16 08:10:47;;;;;;;7.40;6.80;;;;;;;;;;5072007;28;20376;-79
2023/03/16 08:13:13;;;;;;;7.60;6.90;;;;;;;;;;5082130;28;20471;-79
2023/03/16 08:15:39;;;;;;;6.82;6.22;;;;;;;;;;5072602;28;20464;-79
2023/03/16 08:18:06;;;;;;;8.13;7.35;;;;;;;;;;5072623;28;20408;-79
2023/03/16 08:20:32;;;;;;;8.73;7.93;;;;;;;;;;5072728;28;20407;-78
2023/03/16 08:22:59;;;;;;;8.33;7.63;;;;;;;;;;5072192;28;20407;-79
2023/03/16 08:25:25;;;;;;;7.05;6.43;;;;;;;;;;5072156;28;20368;-79
2023/03/16 08:27:51;;;;;;;6.20;5.70;;;;;;;;;;5072946;28;20376;-78
2023/03/16 08:30:18;;;;;;;8.05;7.25;;;;;;;;;;5072683;28;20364;-79
2023/03/16 08:32:44;;;;;;;11.60;10.43;;;;;;;;;;5072705;28;20877;-78
2023/03/16 08:35:15;;;;;;;6.50;5.90;;;;;;;;;;5073021;28;20383;-78
2023/03/16 08:37:41;;;;;;;7.78;7.07;;;;;;;;;;5073173;28;20371;-79
2023/03/16 08:40:14;;;;;;;7.03;6.43;;;;;;;;;;5072482;28;20408;-78
2023/03/16 08:42:40;;;;;;;9.18;8.38;;;;;;;;;;5072006;28;20407;-79
2023/03/16 08:45:08;;;;;;;6.53;6.03;;;;;;;;;;5072413;28;20411;-78
2023/03/16 08:47:39;;;;;;;7.43;6.82;;;;;;;;;;5072357;28;20379;-79
2023/03/16 08:50:05;;;;;;;6.25;5.75;;;;;;;;;;5072276;28;20461;-78
2023/03/16 08:52:32;;;;;;;10.77;9.77;;;;;;;;;;5072311;28;20376;-79
2023/03/16 08:54:58;;;;;;;6.80;6.20;;;;;;;;;;5072076;28;20380;-79
2023/03/16 08:57:25;;;;;;;5.47;4.97;;;;;;;;;;5072064;28;20452;-78
2023/03/16 08:59:51;;;;;;;6.22;5.65;;;;;;;;;;5082550;28;20460;-78
2023/03/16 09:02:17;;;;;;;4.80;4.40;;;;;;;;;;5074881;28;20380;-79
2023/03/16 09:04:44;;;;;;;5.90;5.40;;;;;;;;;;5072057;28;20403;-79
2023/03/16 09:07:11;;;;;;;4.50;4.10;;;;;;;;;;5073114;28;20410;-79
2023/03/16 09:09:38;;;;;;;6.32;4.00;;;;;;;;;;5084042;28;20401;-78
2023/03/16 09:12:05;;;;;;;4.40;3.67;;;;;;;;;;5071054;28;20379;-78
2023/03/16 09:14:31;;;;;;;3.88;3.55;;;;;;;;;;5063542;28;20398;-80
2023/03/16 09:16:57;;;;;;;4.10;3.80;;;;;;;;;;5071511;28;20865;-80
2023/03/16 09:19:23;;;;;;;4.68;3.70;;;;;;;;;;5070687;28;20481;-80
2023/03/16 09:21:50;;;;;;;4.25;3.60;;;;;;;;;;5071689;28;20394;-80
2023/03/16 09:24:16;;;;;;;3.65;3.30;;;;;;;;;;5070298;28;20797;-80
2023/03/16 09:26:42;;;;;;;4.15;3.75;;;;;;;;;;5071144;28;20391;-80
2023/03/16 09:29:09;;;;;;;4.93;3.85;;;;;;;;;;5071470;28;20479;-80
2023/03/16 09:31:36;;;;;;;4.90;4.40;;;;;;;;;;5071488;28;20479;-81
2023/03/16 09:34:03;;;;;;;5.63;4.20;;;;;;;;;;5071583;28;20393;-80
2023/03/16 09:36:30;;;;;;;4.13;3.72;;;;;;;;;;5071382;28;20884;-80
2023/03/16 09:38:55;;;;;;;4.22;3.65;;;;;;;;;;5071289;28;20411;-80
2023/03/16 09:41:31;;;;;;;4.50;3.87;;;;;;;;;;5071283;28;20445;-80
2023/03/16 09:44:05;;;;;;;4.95;3.58;;;;;;;;;;5063900;28;20778;-80
2023/03/16 09:46:31;;;;;;;4.50;3.47;;;;;;;;;;5071259;28;20371;-80
2023/03/16 09:48:58;;;;;;;3.45;3.15;;;;;;;;;;5071379;28;20376;-80
2023/03/16 09:51:30;;;;;;;3.07;2.77;;;;;;;;;;5071240;28;20391;-80
2023/03/16 09:53:59;;;;;;;2.92;2.72;;;;;;;;;;5070892;28;20383;-80
2023/03/16 09:56:41;;;;;;;2.92;2.30;;;;;;;;;;5071161;28;20518;-80
2023/03/16 09:59:12;;;;;;;3.03;2.58;;;;;;;;;;5071052;28;20395;-81
2023/03/16 10:01:43;;;;;;;3.70;2.63;;;;;;;;;;5070829;28;20783;-81
2023/03/16 10:04:12;;;;;;;3.47;2.83;;;;;;;;;;5071019;28;20450;-81
2023/03/16 10:06:44;;;;;;;4.15;2.83;;;;;;;;;;5073431;28;20400;-80
2023/03/16 10:09:32;;;;;;;3.72;3.13;;;;;;;;;;5071085;28;20509;-81
2023/03/16 10:11:58;;;;;;;2.83;2.53;;;;;;;;;;5071183;28;20559;-80
2023/03/16 10:14:36;;;;;;;3.17;2.63;;;;;;;;;;5070583;28;20888;-81
2023/03/16 10:17:18;;;;;;;3.58;2.67;;;;;;;;;;5071047;28;20422;-81
2023/03/16 10:20:07;;;;;;;2.58;2.05;;;;;;;;;;5057022;28;20400;-80
2023/03/16 10:22:34;;;;;;;2.47;2.28;;;;;;;;;;5069658;28;20380;-81
2023/03/16 10:25:11;;;;;;;2.20;2.00;;;;;;;;;;5070963;28;20392;-81
2023/03/16 10:27:39;;;;;;;2.13;1.90;;;;;;;;;;5070878;28;20952;-81
2023/03/16 10:30:24;;;;;;;2.35;2.15;;;;;;;;;;5073515;28;20410;-81
2023/03/16 10:32:51;;;;;;;2.43;1.93;;;;;;;;;;5074787;28;20466;-81
2023/03/16 10:35:29;;;;;;;3.37;1.80;;;;;;;;;;5074754;28;20467;-81
2023/03/16 10:37:56;;;;;;;4.10;1.92;;;;;;;;;;5074576;28;20387;-80
2023/03/16 10:40:22;;;;;;;1.98;1.67;;;;;;;;;;5074814;28;20375;-80
2023/03/16 10:42:48;;;;;;;3.08;1.70;;;;;;;;;;5066092;28;20482;-81
2023/03/16 10:45:20;;;;;;;2.10;1.90;;;;;;;;;;5060744;28;20367;-81
2023/03/16 10:47:46;;;;;;;1.73;1.50;;;;;;;;;;5074633;28;20383;-81
2023/03/16 10:50:15;;;;;;;5.20;1.30;;;;;;;;;;5073200;28;20404;-80
2023/03/16 10:52:45;;;;;;;1.87;1.40;;;;;;;;;;5074608;28;20864;-80
2023/03/16 10:55:16;;;;;;;1.20;1.10;;;;;;;;;;5078758;28;20866;-81
2023/03/16 10:57:47;;;;;;;2.87;1.37;;;;;;;;;;5074477;28;20464;-81
2023/03/16 11:00:23;;;;;;;2.30;1.30;;;;;;;;;;5074397;28;20428;-81
2023/03/16 11:02:50;;;;;;;1.85;1.40;;;;;;;;;;5074397;28;20372;-81
2023/03/16 11:05:16;;;;;;;2.28;1.58;;;;;;;;;;5076646;28;20391;-81
2023/03/16 11:07:57;;;;;;;2.00;1.48;;;;;;;;;;5074155;28;20396;-81
2023/03/16 11:10:32;;;;;;;1.50;1.30;;;;;;;;;;5073132;28;20386;-81
2023/03/16 11:13:17;;;;;;;2.35;1.10;;;;;;;;;;5060567;28;20380;-81
2023/03/16 11:15:56;;;;;;;1.08;0.95;;;;;;;;;;5073926;28;20375;-81
2023/03/16 11:18:35;;;;;;;1.35;1.00;;;;;;;;;;5073959;28;20415;-81
2023/03/16 11:21:06;;;;;;;1.10;1.00;;;;;;;;;;5073798;28;20470;-81
2023/03/16 11:23:33;;;;;;;2.30;1.13;;;;;;;;;;5073992;28;20376;-81
2023/03/16 11:26:02;;;;;;;1.30;1.10;;;;;;;;;;5074699;28;20915;-81
2023/03/16 11:28:34;;;;;;;1.20;1.00;;;;;;;;;;5073891;28;20387;-82
2023/03/16 11:31:00;;;;;;;1.50;0.98;;;;;;;;;;5073702;28;20888;-81
2023/03/16 11:33:29;;;;;;;1.20;0.90;;;;;;;;;;5073788;28;20432;-81
2023/03/16 11:35:58;;;;;;;1.25;0.90;;;;;;;;;;5073655;28;20395;-81
2023/03/16 11:38:28;;;;;;;1.20;0.90;;;;;;;;;;5073421;28;20403;-81
2023/03/16 11:41:02;;;;;;;1.70;0.90;;;;;;;;;;5072556;28;20372;-81
2023/03/16 11:43:31;;;;;;;2.03;1.10;;;;;;;;;;5064748;28;20372;-81
2023/03/16 11:45:57;;;;;;;2.22;1.25;;;;;;;;;;5073437;28;20384;-81
2023/03/16 11:48:29;;;;;;;1.58;1.00;;;;;;;;;;5072970;28;20372;-81
2023/03/16 11:51:27;;;;;;;0.98;0.80;;;;;;;;;;5073365;28;20411;-81
2023/03/16 11:54:05;;;;;;;1.00;0.82;;;;;;;;;;5048502;28;20379;-81
2023/03/16 11:56:33;;;;;;;1.67;0.98;;;;;;;;;;5073114;28;20407;-81
2023/03/16 11:59:18;;;;;;;1.40;1.00;;;;;;;;;;5073164;28;20399;-82
2023/03/16 12:01:50;;;;;;;0.85;0.80;;;;;;;;;;5073191;28;20387;-81
2023/03/16 12:04:19;;;;;;;1.17;0.75;;;;;;;;;;5073143;28;20714;-81
2023/03/16 12:06:49;;;;;;;1.80;0.90;;;;;;;;;;5072853;28;20399;-81
2023/03/16 12:09:39;;;;;;;2.17;1.65;;;;;;;;;;5077584;28;20388;-80
2023/03/16 12:12:13;;;;;;;1.60;0.77;;;;;;;;;;5068077;28;20457;-81
2023/03/16 12:14:43;;;;;;;1.30;0.90;;;;;;;;;;5073889;28;20391;-81
2023/03/16 12:17:18;;;;;;;1.45;0.73;;;;;;;;;;5073714;28;20380;-81
2023/03/16 12:19:57;;;;;;;0.73;0.60;;;;;;;;;;5059387;28;20412;-81
2023/03/16 12:22:24;;;;;;;1.15;1.00;;;;;;;;;;5073236;28;20375;-82
2023/03/16 12:24:50;;;;;;;1.40;0.63;;;;;;;;;;5059321;28;20379;-82
2023/03/16 12:27:36;;;;;;;1.03;0.80;;;;;;;;;;5073101;28;20437;-81
2023/03/16 12:30:13;;;;;;;1.75;0.80;;;;;;;;;;5059513;28;20930;-81
2023/03/16 12:32:44;;;;;;;1.00;0.60;;;;;;;;;;5072748;28;20399;-81
2023/03/16 12:35:18;;;;;;;1.00;0.40;;;;;;;;;;5072856;28;20376;-81
2023/03/16 12:37:53;;;;;;;1.40;0.80;;;;;;;;;;5072494;28;20466;-82
2023/03/16 12:40:19;;;;;;;1.20;0.80;;;;;;;;;;5072720;28;20394;-81
2023/03/16 12:42:57;;;;;;;1.05;0.90;;;;;;;;;;5064436;28;20456;-82
2023/03/16 12:45:55;;;;;;;0.80;0.60;;;;;;;;;;5059777;28;20368;-82
2023/03/16 12:48:29;;;;;;;2.00;0.70;;;;;;;;;;5035421;28;20928;-81
2023/03/16 12:50:57;;;;;;;1.10;0.77;;;;;;;;;;5080289;28;20540;-81
2023/03/16 12:53:38;;;;;;;1.10;0.80;;;;;;;;;;5072768;28;20432;-81
2023/03/16 12:56:08;;;;;;;1.65;0.90;;;;;;;;;;5072150;28;20379;-81
2023/03/16 12:58:35;;;;;;;1.08;0.70;;;;;;;;;;5072252;28;20399;-81
2023/03/16 13:01:02;;;;;;;1.10;0.80;;;;;;;;;;5072200;28;20379;-82
2023/03/16 13:03:28;;;;;;;1.92;0.80;;;;;;;;;;5072055;28;20383;-81
2023/03/16 13:05:59;;;;;;;1.00;0.80;;;;;;;;;;5075465;28;20400;-81
2023/03/16 13:08:26;;;;;;;1.00;0.65;;;;;;;;;;5081129;28;20390;-81
2023/03/16 13:11:08;;;;;;;1.60;0.80;;;;;;;;;;5075089;28;20390;-81
2023/03/16 13:13:34;;;;;;;0.75;0.70;;;;;;;;;;5071945;28;20901;-81
2023/03/16 13:16:08;;;;;;;2.58;0.70;;;;;;;;;;5071605;28;20432;-82
2023/03/16 13:18:44;;;;;;;1.73;0.70;;;;;;;;;;5071771;28;20407;-82
2023/03/16 13:21:15;;;;;;;1.33;0.70;;;;;;;;;;5071552;28;20853;-81
2023/03/16 13:23:48;;;;;;;0.88;0.60;;;;;;;;;;5071634;28;20433;-82
2023/03/16 13:26:34;;;;;;;1.58;0.50;;;;;;;;;;5071500;28;20849;-82
2023/03/16 13:29:00;;;;;;;1.25;0.63;;;;;;;;;;5071840;28;20892;-82
2023/03/16 13:31:36;;;;;;;1.40;0.70;;;;;;;;;;5071518;28;20427;-82
2023/03/16 13:34:03;;;;;;;1.35;0.65;;;;;;;;;;5071508;28;20380;-82
2023/03/16 13:36:30;;;;;;;0.98;0.50;;;;;;;;;;5071256;28;20749;-81
2023/03/16 13:39:03;;;;;;;2.05;0.73;;;;;;;;;;5071590;28;20403;-81
2023/03/16 13:41:29;;;;;;;1.10;0.63;;;;;;;;;;5071289;28;20391;-82
2023/03/16 13:43:55;;;;;;;1.00;0.70;;;;;;;;;;5062793;28;20368;-81
2023/03/16 13:46:26;;;;;;;1.02;0.73;;;;;;;;;;5071282;28;20845;-82
2023/03/16 13:48:52;;;;;;;1.27;0.60;;;;;;;;;;5069627;28;20745;-81
2023/03/16 13:51:21;;;;;;;2.05;0.68;;;;;;;;;;5071478;28;20384;-81
2023/03/16 13:53:48;;;;;;;0.95;0.50;;;;;;;;;;5071418;28;20382;-81
2023/03/16 13:56:18;;;;;;;1.58;0.60;;;;;;;;;;5071233;28;20463;-81
2023/03/16 13:58:46;;;;;;;1.00;0.60;;;;;;;;;;5071088;28;20410;-81
2023/03/16 14:01:23;;;;;;;2.35;2.15;;;;;;;;;;5071352;28;20380;-81
2023/03/16 14:03:50;;;;;;;1.02;0.60;;;;;;;;;;5073044;28;20372;-81
2023/03/16 14:06:25;;;;;;;1.52;0.70;;;;;;;;;;5071139;28;20499;-81
2023/03/16 14:08:53;;;;;;;0.70;0.55;;;;;;;;;;5071071;28;20427;-81
2023/03/16 14:11:19;;;;;;;0.45;0.40;;;;;;;;;;5071122;28;20449;-81
2023/03/16 14:13:51;;;;;;;0.75;0.50;;;;;;;;;;5071212;28;20388;-81
2023/03/16 14:16:18;;;;;;;1.70;0.60;;;;;;;;;;5070524;28;20372;-81
2023/03/16 14:18:51;;;;;;;1.33;0.52;;;;;;;;;;5071029;28;20406;-81
2023/03/16 14:21:20;;;;;;;0.55;0.55;;;;;;;;;;5070968;28;20384;-81
2023/03/16 14:23:50;;;;;;;1.15;0.52;;;;;;;;;;5071060;28;20425;-81
2023/03/16 14:26:17;;;;;;;1.52;0.60;;;;;;;;;;5070718;28;20395;-81
2023/03/16 14:29:03;;;;;;;0.88;0.50;;;;;;;;;;5071035;28;20463;-81
2023/03/16 14:31:37;;;;;;;1.60;0.70;;;;;;;;;;5070760;28;20903;-81
2023/03/16 14:34:07;;;;;;;1.23;0.63;;;;;;;;;;5070918;28;20410;-81
2023/03/16 14:36:35;;;;;;;0.85;0.70;;;;;;;;;;5069380;28;20883;-81
2023/03/16 14:39:10;;;;;;;20.65;15.90;;;;;;;;;;5070764;28;20408;-81
2023/03/16 14:41:37;;;;;;;1.92;0.90;;;;;;;;;;5070663;28;20371;-81
2023/03/16 14:44:03;;;;;;;27.35;20.30;;;;;;;;;;5060939;28;20384;-81
2023/03/16 14:46:31;;;;;;;12.65;11.13;;;;;;;;;;5072529;28;20389;-81
2023/03/16 14:49:18;;;;;;;1.40;1.15;;;;;;;;;;5070877;28;20380;-81
2023/03/16 14:51:45;;;;;;;1.58;1.00;;;;;;;;;;5070617;28;20409;-81